Time;durP1;ratioP1;P1;durP2;ratioP2;P2;SDS_P1;SDS_P2;PMS_P1;PMS_P2;Temp;Humidity;BMP_temperature;BMP_pressure;BME280_temperature;BME280_humidity;BME280_pressure;Samples;Min_cycle;Max_cycle;Signal;HPM_P1;HPM_P2
2023/05/23 00:01:15;;;;;;;27.58;14.13;;;20.50;78.80;;;;;;3973501;29;20130;-50
2023/05/23 00:03:57;;;;;;;22.45;13.40;;;20.50;78.50;;;;;;3962447;29;20065;-49
2023/05/23 00:06:37;;;;;;;29.48;14.35;;;20.40;78.70;;;;;;3974028;29;20061;-50
2023/05/23 00:09:18;;;;;;;18.95;12.05;;;20.50;78.60;;;;;;3964123;29;20050;-49
2023/05/23 00:11:59;;;;;;;27.80;12.75;;;20.40;78.40;;;;;;3962386;29;20057;-51
2023/05/23 00:14:40;;;;;;;26.42;13.38;;;20.50;78.90;;;;;;3973696;29;20062;-50
2023/05/23 00:17:24;;;;;;;27.50;12.85;;;20.40;78.70;;;;;;3973506;29;20061;-50
2023/05/23 00:20:08;;;;;;;25.25;12.82;;;20.40;78.40;;;;;;3964165;29;20103;-49
2023/05/23 00:22:49;;;;;;;23.10;11.55;;;20.40;78.60;;;;;;3960998;29;21883;-50
2023/05/23 00:25:32;;;;;;;24.38;10.85;;;20.40;78.60;;;;;;3973332;29;20066;-51
2023/05/23 00:28:14;;;;;;;16.85;10.13;;;20.40;79.70;;;;;;3958034;29;20070;-53
2023/05/23 00:30:56;;;;;;;27.33;10.68;;;20.40;78.70;;;;;;3952975;29;20107;-49
2023/05/23 00:33:38;;;;;;;18.02;9.82;;;20.40;79.00;;;;;;3962313;29;20062;-52
2023/05/23 00:36:21;;;;;;;18.50;8.95;;;20.40;78.90;;;;;;3962042;29;20521;-53
2023/05/23 00:39:01;;;;;;;20.42;10.10;;;20.40;78.90;;;;;;3972864;29;20563;-51
2023/05/23 00:41:42;;;;;;;20.08;9.43;;;20.40;78.60;;;;;;3973333;29;20148;-50
2023/05/23 00:44:23;;;;;;;18.40;10.00;;;20.40;78.80;;;;;;3973334;29;20069;-55
2023/05/23 00:47:07;;;;;;;;;;;20.30;79.00;;;;;;3972459;29;20053;-55
2023/05/23 00:49:49;;;;;;;17.98;10.23;;;20.30;79.00;;;;;;3947251;29;20017;-53
2023/05/23 00:52:30;;;;;;;25.20;10.88;;;20.30;78.50;;;;;;3958408;29;20066;-55
2023/05/23 00:55:12;;;;;;;16.27;9.43;;;20.30;79.00;;;;;;3947055;29;20070;-52
2023/05/23 00:57:55;;;;;;;21.25;11.77;;;20.20;79.10;;;;;;3950295;29;20062;-53
2023/05/23 01:00:38;;;;;;;18.95;10.52;;;20.20;78.90;;;;;;3957563;29;20054;-55
2023/05/23 01:03:19;;;;;;;17.15;11.40;;;20.20;78.30;;;;;;3958127;29;20131;-53
2023/05/23 01:06:02;;;;;;;16.80;12.35;;;20.20;78.40;;;;;;3957197;29;20062;-53
2023/05/23 01:08:43;;;;;;;21.30;12.68;;;20.20;78.70;;;;;;3957428;29;20511;-55
2023/05/23 01:11:27;;;;;;;;;;;20.20;78.90;;;;;;3958623;29;20066;-55
2023/05/23 01:14:13;;;;;;;17.50;10.43;;;20.10;78.50;;;;;;3943214;30;19932;-54
2023/05/23 01:16:58;;;;;;;18.13;11.07;;;20.10;78.50;;;;;;3942087;30;20522;-55
2023/05/23 01:19:54;;;;;;;17.42;11.30;;;20.10;78.70;;;;;;3942913;30;20063;-55
2023/05/23 01:22:54;;;;;;;17.15;10.00;;;20.10;79.00;;;;;;3942676;30;20071;-52
2023/05/23 01:25:58;;;;;;;12.05;7.57;;;20.10;78.70;;;;;;3956072;29;20058;-54
2023/05/23 01:28:46;;;;;;;10.35;6.03;;;20.10;78.40;;;;;;3957194;29;20063;-51
2023/05/23 01:31:29;;;;;;;9.25;7.00;;;20.00;78.50;;;;;;3957750;29;20144;-54
2023/05/23 01:34:12;;;;;;;13.32;7.50;;;20.00;78.60;;;;;;3957568;29;20075;-53
2023/05/23 01:36:55;;;;;;;14.18;7.35;;;20.00;78.80;;;;;;3946238;29;20046;-50
2023/05/23 01:39:37;;;;;;;12.88;6.53;;;20.00;78.40;;;;;;3957631;29;20074;-51
2023/05/23 01:42:18;;;;;;;11.27;6.88;;;20.00;78.20;;;;;;3946633;30;20116;-51
2023/05/23 01:45:00;;;;;;;9.90;5.65;;;20.00;78.70;;;;;;3935791;30;20058;-55
2023/05/23 01:47:43;;;;;;;7.97;4.63;;;20.00;78.30;;;;;;3959504;29;20062;-55
2023/05/23 01:50:25;;;;;;;8.90;4.50;;;20.00;78.40;;;;;;3961374;29;20053;-56
2023/05/23 01:53:10;;;;;;;10.90;4.65;;;20.00;78.30;;;;;;3972090;29;20696;-55
2023/05/23 01:55:52;;;;;;;7.25;4.50;;;20.00;78.40;;;;;;3961290;29;20505;-55
2023/05/23 01:58:35;;;;;;;7.00;4.22;;;19.90;78.10;;;;;;3972319;29;20132;-56
2023/05/23 02:01:18;;;;;;;11.48;4.78;;;20.00;78.50;;;;;;3961144;29;20058;-55
2023/05/23 02:03:59;;;;;;;12.00;4.88;;;19.90;78.40;;;;;;3956199;29;20061;-54
2023/05/23 02:06:41;;;;;;;;;;;19.90;79.50;;;;;;3957854;29;20066;-52
2023/05/23 02:09:25;;;;;;;12.45;5.53;;;19.90;78.30;;;;;;3946050;29;19998;-54
2023/05/23 02:12:08;;;;;;;10.63;5.05;;;19.90;77.80;;;;;;3957748;29;20062;-51
2023/05/23 02:14:50;;;;;;;18.83;6.90;;;19.90;77.40;;;;;;3972347;29;20053;-55
2023/05/23 02:17:33;;;;;;;16.90;7.47;;;19.90;77.90;;;;;;3972265;29;20073;-55
2023/05/23 02:20:17;;;;;;;15.52;6.53;;;19.90;77.60;;;;;;3960563;29;20091;-53
2023/05/23 02:23:00;;;;;;;13.13;6.95;;;19.80;77.90;;;;;;3960421;29;20073;-54
2023/05/23 02:25:42;;;;;;;18.63;6.68;;;19.80;77.90;;;;;;3960379;29;20418;-54
2023/05/23 02:28:24;;;;;;;16.50;7.80;;;19.80;78.10;;;;;;3971673;29;20530;-56
2023/05/23 02:31:05;;;;;;;17.35;6.82;;;19.80;77.20;;;;;;3971636;29;20065;-55
2023/05/23 02:33:47;;;;;;;16.10;7.10;;;19.80;77.00;;;;;;3970583;29;20050;-56
2023/05/23 02:36:28;;;;;;;17.20;7.18;;;19.80;77.10;;;;;;3945548;29;20162;-55
2023/05/23 02:39:09;;;;;;;16.95;7.47;;;19.70;76.60;;;;;;3957022;29;20419;-51
2023/05/23 02:41:50;;;;;;;17.05;6.43;;;19.70;76.80;;;;;;3949200;29;20164;-52
2023/05/23 02:44:31;;;;;;;13.65;6.65;;;19.70;76.60;;;;;;3960830;29;20085;-54
2023/05/23 02:47:12;;;;;;;13.10;6.18;;;19.70;76.80;;;;;;3960481;29;20527;-55
2023/05/23 02:49:54;;;;;;;12.93;6.07;;;19.70;77.60;;;;;;3971326;29;20579;-54
2023/05/23 02:52:36;;;;;;;14.60;5.45;;;19.70;77.40;;;;;;3960089;29;20108;-55
2023/05/23 02:55:17;;;;;;;13.88;5.53;;;19.70;77.20;;;;;;3960320;29;20058;-52
2023/05/23 02:58:00;;;;;;;10.88;4.53;;;19.70;77.50;;;;;;3960341;29;20053;-53
2023/05/23 03:00:42;;;;;;;6.95;3.83;;;19.70;77.10;;;;;;3959388;29;20066;-56
2023/05/23 03:03:24;;;;;;;6.72;4.40;;;19.60;77.10;;;;;;3960170;29;20439;-56
2023/05/23 03:06:09;;;;;;;5.40;3.83;;;19.60;77.10;;;;;;3960090;29;20054;-56
2023/05/23 03:08:50;;;;;;;10.05;4.50;;;19.60;77.00;;;;;;3955368;29;20063;-54
2023/05/23 03:11:31;;;;;;;5.50;4.10;;;19.60;77.40;;;;;;3967868;29;20066;-57
2023/05/23 03:14:12;;;;;;;;;;;19.60;77.00;;;;;;3960284;29;20518;-56
2023/05/23 03:16:53;;;;;;;11.85;5.30;;;19.50;77.40;;;;;;3970991;29;19936;-56
2023/05/23 03:19:34;;;;;;;9.70;5.65;;;19.50;77.10;;;;;;3959653;29;20556;-57
2023/05/23 03:22:17;;;;;;;15.18;6.40;;;19.50;76.50;;;;;;3970196;29;20522;-57
2023/05/23 03:24:58;;;;;;;15.73;6.15;;;19.50;77.00;;;;;;3970874;29;20455;-57
2023/05/23 03:27:39;;;;;;;14.82;5.10;;;19.50;77.10;;;;;;3969978;29;20207;-53
2023/05/23 03:30:22;;;;;;;15.15;5.25;;;19.50;77.10;;;;;;3959772;29;20061;-53
2023/05/23 03:33:03;;;;;;;12.27;5.38;;;19.50;76.60;;;;;;3958945;29;20140;-51
2023/05/23 03:35:45;;;;;;;;;;;19.50;76.30;;;;;;3970875;29;20146;-52
2023/05/23 03:38:27;;;;;;;11.43;5.70;;;19.40;76.50;;;;;;3971070;29;20017;-53
2023/05/23 03:41:09;;;;;;;13.20;5.97;;;19.40;76.20;;;;;;3958866;29;20061;-51
2023/05/23 03:43:50;;;;;;;16.90;6.40;;;19.40;76.80;;;;;;3970205;29;20079;-54
2023/05/23 03:46:31;;;;;;;14.45;5.95;;;19.40;76.80;;;;;;3970987;29;20065;-54
2023/05/23 03:49:12;;;;;;;16.15;5.72;;;19.40;76.60;;;;;;3969822;29;20163;-52
2023/05/23 03:51:53;;;;;;;;;;;19.40;77.10;;;;;;3956352;29;20053;-51
2023/05/23 03:54:36;;;;;;;15.10;5.88;;;19.30;76.10;;;;;;3955960;29;19932;-51
2023/05/23 03:57:17;;;;;;;11.52;5.32;;;19.30;76.40;;;;;;3961646;29;20111;-48
2023/05/23 03:59:58;;;;;;;;;;;19.30;75.70;;;;;;3966794;29;20526;-53
2023/05/23 04:02:39;;;;;;;11.77;4.88;;;19.30;77.10;;;;;;3970139;29;20004;-53
2023/05/23 04:05:20;;;;;;;12.45;5.00;;;19.30;77.00;;;;;;3959846;29;20119;-51
2023/05/23 04:08:02;;;;;;;14.88;5.68;;;19.20;76.00;;;;;;3949138;29;20519;-56
2023/05/23 04:10:45;;;;;;;10.05;4.18;;;19.20;76.00;;;;;;3954776;29;20517;-56
2023/05/23 04:13:26;;;;;;;12.15;4.90;;;19.20;76.30;;;;;;3948632;29;20518;-55
2023/05/23 04:16:07;;;;;;;12.00;4.65;;;19.20;76.30;;;;;;3959645;29;20135;-55
2023/05/23 04:18:48;;;;;;;7.30;3.97;;;19.20;76.50;;;;;;3969689;29;20498;-56
2023/05/23 04:21:29;;;;;;;11.15;4.32;;;19.20;75.90;;;;;;3960202;29;20422;-56
2023/05/23 04:24:18;;;;;;;12.48;3.55;;;19.20;76.10;;;;;;3962136;29;20406;-54
2023/05/23 04:27:00;;;;;;;14.68;3.72;;;19.20;76.40;;;;;;3962421;29;20192;-52
2023/05/23 04:29:43;;;;;;;11.95;3.83;;;19.20;75.60;;;;;;3973130;29;20089;-56
2023/05/23 04:32:24;;;;;;;13.20;4.07;;;19.20;75.40;;;;;;3957021;29;20062;-53
2023/05/23 04:35:07;;;;;;;10.68;3.97;;;19.20;75.80;;;;;;3957760;29;20062;-55
2023/05/23 04:37:55;;;;;;;13.88;4.22;;;19.20;76.10;;;;;;3947225;29;20204;-56
2023/05/23 04:40:38;;;;;;;9.45;3.63;;;19.20;76.10;;;;;;3959542;29;20603;-55
2023/05/23 04:43:33;;;;;;;8.15;3.72;;;19.10;75.70;;;;;;3961588;29;20406;-57
2023/05/23 04:46:26;;;;;;;11.68;3.58;;;19.10;75.50;;;;;;3972195;29;20510;-56
2023/05/23 04:49:26;;;;;;;8.98;3.50;;;19.10;76.00;;;;;;3961271;29;20443;-56
2023/05/23 04:52:07;;;;;;;12.15;3.65;;;19.10;75.20;;;;;;3951878;29;20054;-56
2023/05/23 04:54:52;;;;;;;8.35;3.00;;;19.10;75.60;;;;;;3972080;29;20127;-56
2023/05/23 04:57:33;;;;;;;10.23;3.45;;;19.10;75.40;;;;;;3971736;29;20107;-53
2023/05/23 05:00:19;;;;;;;9.77;3.63;;;19.10;75.80;;;;;;3946739;29;20528;-56
2023/05/23 05:03:00;;;;;;;11.32;3.15;;;19.10;75.40;;;;;;3952298;29;20062;-55
2023/05/23 05:05:42;;;;;;;10.68;3.92;;;19.00;74.90;;;;;;3972395;29;20419;-56
2023/05/23 05:08:24;;;;;;;12.38;3.70;;;19.00;75.20;;;;;;3971743;29;20058;-53
2023/05/23 05:11:06;;;;;;;13.85;4.38;;;19.00;74.50;;;;;;3971935;29;20054;-55
2023/05/23 05:13:47;;;;;;;;;;;19.00;74.40;;;;;;3961815;29;20144;-56
2023/05/23 05:16:30;;;;;;;13.43;4.88;;;19.00;74.80;;;;;;3961498;29;19932;-56
2023/05/23 05:19:14;;;;;;;16.13;5.57;;;19.00;74.70;;;;;;3946560;29;20197;-56
2023/05/23 05:21:56;;;;;;;13.27;5.43;;;18.90;74.90;;;;;;3956659;29;20100;-60
2023/05/23 05:24:39;;;;;;;10.32;5.25;;;18.90;75.00;;;;;;3946808;29;20458;-54
2023/05/23 05:27:20;;;;;;;11.13;3.85;;;18.90;74.90;;;;;;3964131;29;20077;-56
2023/05/23 05:30:04;;;;;;;14.57;5.90;;;18.90;75.00;;;;;;3972632;29;20612;-57
2023/05/23 05:32:50;;;;;;;13.07;6.13;;;18.90;75.10;;;;;;3971642;29;20054;-56
2023/05/23 05:35:31;;;;;;;15.07;5.38;;;18.90;74.90;;;;;;3972551;29;20069;-57
2023/05/23 05:38:12;;;;;;;11.80;6.40;;;18.90;75.20;;;;;;3971086;29;20131;-53
2023/05/23 05:40:53;;;;;;;12.40;6.13;;;18.90;75.50;;;;;;3971584;29;20069;-58
2023/05/23 05:43:35;;;;;;;13.80;6.78;;;18.90;75.60;;;;;;3971297;29;20061;-54
2023/05/23 05:46:17;;;;;;;12.10;5.40;;;18.80;74.50;;;;;;3971149;29;20060;-54
2023/05/23 05:48:59;;;;;;;;;;;18.90;74.70;;;;;;3956690;29;20066;-58
2023/05/23 05:51:40;;;;;;;12.05;5.15;;;18.90;75.50;;;;;;3961983;29;19940;-57
2023/05/23 05:54:21;;;;;;;12.00;4.50;;;18.90;75.50;;;;;;3960263;29;20532;-57
2023/05/23 05:57:03;;;;;;;7.85;4.03;;;18.90;75.20;;;;;;3953027;29;20422;-56
2023/05/23 05:59:44;;;;;;;9.18;4.18;;;18.90;73.40;;;;;;3960642;29;20061;-56
2023/05/23 06:02:25;;;;;;;11.38;4.70;;;18.90;72.90;;;;;;3950748;29;20066;-56
2023/05/23 06:05:11;;;;;;;;;;;18.90;72.60;;;;;;3975934;29;20069;-56
2023/05/23 06:07:52;;;;;;;7.75;3.13;;;18.90;73.50;;;;;;3962118;29;20054;-55
2023/05/23 06:10:35;;;;;;;10.13;4.05;;;18.80;73.50;;;;;;3942082;29;20068;-56
2023/05/23 06:13:16;;;;;;;9.85;3.90;;;18.80;73.10;;;;;;3971461;29;20135;-56
2023/05/23 06:16:01;;;;;;;9.38;3.25;;;18.80;71.90;;;;;;3971016;29;20509;-55
2023/05/23 06:18:42;;;;;;;10.77;3.97;;;18.80;71.90;;;;;;3960550;29;20062;-56
2023/05/23 06:21:25;;;;;;;;;;;18.80;72.70;;;;;;3956491;29;20107;-54
2023/05/23 06:24:06;;;;;;;9.40;3.53;;;18.80;72.70;;;;;;3970741;29;20095;-56
2023/05/23 06:26:47;;;;;;;;;;;18.80;73.10;;;;;;3956239;29;20061;-56
2023/05/23 06:29:29;;;;;;;10.60;3.53;;;18.80;72.80;;;;;;3966052;29;19952;-56
2023/05/23 06:32:10;;;;;;;11.52;3.00;;;18.70;72.10;;;;;;3957125;29;20053;-55
2023/05/23 06:34:52;;;;;;;12.52;3.70;;;18.70;72.80;;;;;;3961775;29;20079;-55
2023/05/23 06:37:34;;;;;;;10.00;3.35;;;18.70;72.50;;;;;;3973728;29;20146;-56
2023/05/23 06:40:15;;;;;;;16.88;4.25;;;18.70;71.70;;;;;;3960008;29;20597;-56
2023/05/23 06:42:56;;;;;;;11.82;3.90;;;18.70;72.10;;;;;;3971132;29;20057;-56
2023/05/23 06:46:04;;;;;;;11.27;3.78;;;18.70;70.50;;;;;;3969348;29;20057;-56
2023/05/23 06:48:45;;;;;;;9.38;2.92;;;18.70;71.50;;;;;;3970589;29;20061;-55
2023/05/23 06:51:26;;;;;;;11.05;3.45;;;18.70;70.20;;;;;;3959465;29;20058;-57
2023/05/23 06:54:10;;;;;;;;;;;18.70;70.90;;;;;;3970672;29;20411;-56
2023/05/23 06:56:51;;;;;;;12.48;3.45;;;18.70;70.00;;;;;;3944861;30;20382;-56
2023/05/23 06:59:33;;;;;;;10.48;3.08;;;18.60;70.40;;;;;;3945398;29;20062;-56
2023/05/23 07:02:15;;;;;;;13.20;3.72;;;18.60;71.20;;;;;;3955467;29;20058;-56
2023/05/23 07:04:56;;;;;;;14.35;4.13;;;18.60;70.20;;;;;;3970757;29;20057;-55
2023/05/23 07:07:58;;;;;;;8.65;3.30;;;18.60;69.80;;;;;;3969525;29;20058;-55
2023/05/23 07:10:41;;;;;;;12.10;4.15;;;18.60;69.90;;;;;;3965008;29;20660;-56
2023/05/23 07:13:38;;;;;;;13.57;4.28;;;18.60;68.00;;;;;;3984930;29;20505;-56
2023/05/23 07:16:20;;;;;;;10.27;3.63;;;18.60;68.80;;;;;;3969798;29;20107;-55
2023/05/23 07:19:10;;;;;;;9.02;3.33;;;18.60;69.10;;;;;;3970324;29;20127;-56
2023/05/23 07:21:58;;;;;;;12.63;3.65;;;18.60;68.30;;;;;;3971108;29;20061;-57
2023/05/23 07:24:40;;;;;;;12.65;3.60;;;18.60;68.10;;;;;;3957058;29;20069;-56
2023/05/23 07:27:23;;;;;;;13.02;3.58;;;18.60;67.70;;;;;;3976478;29;20061;-56
2023/05/23 07:30:05;;;;;;;14.98;3.35;;;18.60;67.30;;;;;;3971019;29;20103;-56
2023/05/23 07:32:47;;;;;;;13.60;3.67;;;18.60;67.30;;;;;;3969629;29;20399;-56
2023/05/23 07:35:29;;;;;;;12.65;3.40;;;18.50;65.70;;;;;;3969457;29;20416;-57
2023/05/23 07:38:11;;;;;;;18.38;3.80;;;18.50;66.30;;;;;;3960192;29;20053;-55
2023/05/23 07:40:52;;;;;;;15.15;3.53;;;18.50;66.70;;;;;;3968348;29;20495;-55
2023/05/23 07:43:48;;;;;;;10.48;2.67;;;18.50;66.60;;;;;;3966275;29;20130;-57
2023/05/23 07:46:30;;;;;;;16.42;3.83;;;18.50;67.20;;;;;;3980378;29;20487;-57
2023/05/23 07:49:10;;;;;;;18.42;3.35;;;18.50;68.70;;;;;;3970236;29;20054;-54
2023/05/23 07:51:52;;;;;;;;;;;18.50;67.60;;;;;;3954672;29;20055;-56
2023/05/23 07:54:33;;;;;;;6.95;2.92;;;18.50;68.30;;;;;;3979307;29;19932;-55
2023/05/23 07:57:16;;;;;;;13.23;3.65;;;18.50;66.90;;;;;;3978265;29;20535;-56
2023/05/23 07:59:59;;;;;;;12.57;3.10;;;18.50;66.50;;;;;;3955979;29;20468;-56
2023/05/23 08:02:42;;;;;;;11.98;3.88;;;18.50;65.50;;;;;;3962578;29;20081;-54
2023/05/23 08:05:31;;;;;;;13.85;3.53;;;18.40;66.00;;;;;;3972728;29;20065;-56
2023/05/23 08:08:12;;;;;;;13.18;3.28;;;18.40;65.30;;;;;;3961990;29;20559;-55
2023/05/23 08:10:54;;;;;;;14.95;4.05;;;18.40;65.40;;;;;;3973295;29;20139;-59
2023/05/23 08:13:40;;;;;;;10.05;3.00;;;18.40;64.70;;;;;;3955029;29;20169;-57
2023/05/23 08:16:41;;;;;;;15.60;3.92;;;18.40;65.00;;;;;;3958367;29;20469;-57
2023/05/23 08:19:30;;;;;;;11.98;4.05;;;18.50;64.50;;;;;;3965809;29;20070;-57
2023/05/23 08:22:12;;;;;;;14.85;3.78;;;18.50;64.10;;;;;;3974660;29;20057;-58
2023/05/23 08:24:52;;;;;;;23.33;3.60;;;18.50;64.30;;;;;;3961844;29;20141;-58
2023/05/23 08:27:35;;;;;;;14.20;4.07;;;18.50;64.90;;;;;;3962102;29;20065;-57
2023/05/23 08:30:28;;;;;;;12.70;3.70;;;18.60;65.60;;;;;;3951568;29;20183;-56
2023/05/23 08:33:11;;;;;;;19.73;3.97;;;18.60;65.10;;;;;;3972239;29;20058;-57
2023/05/23 08:35:55;;;;;;;12.52;3.50;;;18.60;65.20;;;;;;3961815;29;20114;-58
2023/05/23 08:38:36;;;;;;;15.32;5.03;;;18.60;65.20;;;;;;3961450;29;20057;-58
2023/05/23 08:41:35;;;;;;;15.55;4.25;;;18.60;64.60;;;;;;3961709;29;20110;-58
2023/05/23 08:44:21;;;;;;;21.50;4.47;;;18.60;64.00;;;;;;3957609;29;20112;-58
2023/05/23 08:47:08;;;;;;;13.48;3.65;;;18.60;63.90;;;;;;3957542;29;20627;-58
2023/05/23 08:50:02;;;;;;;13.43;4.22;;;18.60;63.50;;;;;;3956895;29;20054;-58
2023/05/23 08:52:47;;;;;;;10.88;3.50;;;18.60;63.90;;;;;;3967520;29;20508;-58
2023/05/23 08:55:30;;;;;;;12.20;3.38;;;18.60;63.90;;;;;;3961933;29;20464;-58
2023/05/23 08:58:14;;;;;;;12.48;3.03;;;18.60;61.60;;;;;;3961813;29;20062;-58
2023/05/23 09:01:04;;;;;;;9.85;2.85;;;18.60;62.80;;;;;;3961674;29;20137;-57
2023/05/23 09:03:49;;;;;;;14.25;4.25;;;18.60;62.70;;;;;;3961872;29;20187;-59
2023/05/23 09:06:51;;;;;;;11.27;3.75;;;18.60;62.50;;;;;;3972431;29;20066;-59
2023/05/23 09:09:32;;;;;;;11.52;4.18;;;18.60;62.70;;;;;;3960826;29;20512;-59
2023/05/23 09:12:15;;;;;;;11.82;3.53;;;18.60;62.50;;;;;;3950418;29;20407;-59
2023/05/23 09:14:59;;;;;;;11.70;3.20;;;18.60;60.70;;;;;;3961300;29;20192;-59
2023/05/23 09:17:41;;;;;;;14.88;3.35;;;18.60;60.00;;;;;;3971949;29;20054;-59
2023/05/23 09:20:22;;;;;;;;;;;18.60;60.40;;;;;;3961494;29;20053;-58
2023/05/23 09:23:12;;;;;;;13.98;4.22;;;18.60;60.10;;;;;;3971664;29;19951;-58
2023/05/23 09:25:54;;;;;;;11.32;3.90;;;18.60;60.60;;;;;;3961794;29;20506;-59
2023/05/23 09:28:37;;;;;;;14.98;3.50;;;18.60;60.70;;;;;;3961250;29;20054;-59
2023/05/23 09:31:18;;;;;;;12.90;3.70;;;18.60;61.80;;;;;;3960792;29;20054;-54
2023/05/23 09:34:00;;;;;;;13.80;3.70;;;18.60;62.30;;;;;;3971217;29;20096;-59
2023/05/23 09:36:42;;;;;;;16.73;3.70;;;18.60;62.10;;;;;;3949996;29;20062;-59
2023/05/23 09:39:25;;;;;;;14.05;3.47;;;18.60;62.30;;;;;;3960429;29;20426;-59
2023/05/23 09:42:07;;;;;;;13.48;3.50;;;18.60;62.20;;;;;;3960639;29;20604;-58
2023/05/23 09:44:48;;;;;;;15.70;3.28;;;18.60;62.70;;;;;;3957388;29;20400;-58
2023/05/23 09:47:29;;;;;;;20.25;3.72;;;18.60;61.60;;;;;;3968417;29;20061;-59
2023/05/23 09:50:13;;;;;;;14.20;3.35;;;18.60;60.80;;;;;;3971606;29;20205;-59
2023/05/23 09:52:54;;;;;;;12.15;3.70;;;18.60;61.10;;;;;;3972070;29;20410;-59
2023/05/23 09:55:38;;;;;;;10.13;3.38;;;18.60;61.30;;;;;;3971577;29;20602;-58
2023/05/23 09:58:23;;;;;;;11.45;3.05;;;18.60;61.10;;;;;;3971964;29;20073;-59
2023/05/23 10:01:07;;;;;;;15.63;3.67;;;18.60;60.70;;;;;;3971762;29;20527;-58
2023/05/23 10:03:56;;;;;;;16.58;3.42;;;18.60;61.00;;;;;;3971706;29;20087;-59
2023/05/23 10:06:44;;;;;;;16.98;4.18;;;18.60;61.40;;;;;;3971617;29;20093;-59
2023/05/23 10:09:26;;;;;;;10.85;3.33;;;18.60;60.50;;;;;;3970320;29;20135;-58
2023/05/23 10:12:42;;;;;;;10.65;3.20;;;18.60;60.20;;;;;;3974191;29;20053;-58
2023/05/23 10:15:27;;;;;;;10.80;2.60;;;18.60;60.30;;;;;;3983748;29;20118;-59
2023/05/23 10:18:16;;;;;;;15.25;3.55;;;18.60;60.10;;;;;;3953031;29;20065;-59
2023/05/23 10:21:02;;;;;;;13.13;3.05;;;18.60;59.60;;;;;;3970278;29;20057;-59
2023/05/23 10:23:44;;;;;;;13.48;3.17;;;18.60;59.80;;;;;;3986000;29;20403;-59
2023/05/23 10:26:26;;;;;;;12.98;3.35;;;18.60;59.80;;;;;;3945553;30;20827;-59
2023/05/23 10:29:08;;;;;;;14.00;3.42;;;18.60;59.70;;;;;;3956067;29;20135;-59
2023/05/23 10:31:50;;;;;;;10.77;3.05;;;18.60;59.60;;;;;;3958470;29;20050;-58
2023/05/23 10:34:37;;;;;;;14.70;3.30;;;18.60;59.60;;;;;;3960468;29;20403;-59
2023/05/23 10:37:24;;;;;;;11.25;3.67;;;18.60;59.60;;;;;;3971197;29;20380;-59
2023/05/23 10:40:21;;;;;;;9.77;3.42;;;18.60;59.40;;;;;;3970739;29;20061;-59
2023/05/23 10:43:07;;;;;;;10.40;3.05;;;18.60;59.30;;;;;;3970544;29;20440;-59
2023/05/23 10:45:50;;;;;;;16.80;2.58;;;18.60;59.50;;;;;;3986129;29;20053;-59
2023/05/23 10:48:41;;;;;;;6.90;2.17;;;18.60;58.50;;;;;;3978151;29;20066;-59
2023/05/23 10:51:23;;;;;;;10.55;3.10;;;18.60;59.10;;;;;;3970591;29;20049;-58
2023/05/23 10:54:11;;;;;;;14.95;3.70;;;18.60;59.30;;;;;;3970896;29;20571;-58
2023/05/23 10:57:03;;;;;;;19.52;3.67;;;18.60;59.30;;;;;;3959563;29;20131;-58
2023/05/23 10:59:46;;;;;;;12.30;3.70;;;18.60;59.40;;;;;;3973029;29;21923;-59
2023/05/23 11:02:29;;;;;;;12.55;2.80;;;18.60;59.50;;;;;;3980105;29;20199;-60
2023/05/23 11:05:22;;;;;;;16.15;3.15;;;18.60;59.60;;;;;;3980826;29;20074;-62
2023/05/23 11:08:12;;;;;;;10.10;3.00;;;18.60;59.30;;;;;;3955460;29;20119;-58
2023/05/23 11:11:00;;;;;;;11.40;3.25;;;18.60;59.60;;;;;;3955853;29;20066;-59
2023/05/23 11:13:56;;;;;;;11.55;2.95;;;18.70;59.80;;;;;;3960882;29;20057;-59
2023/05/23 11:16:41;;;;;;;12.85;3.45;;;18.70;59.60;;;;;;3958803;29;20665;-59
2023/05/23 11:19:26;;;;;;;12.52;2.92;;;18.70;59.00;;;;;;3970936;29;20195;-59
2023/05/23 11:22:09;;;;;;;12.48;3.55;;;18.70;58.80;;;;;;3969881;29;20058;-59
2023/05/23 11:24:51;;;;;;;7.47;2.60;;;18.70;59.10;;;;;;3970832;29;20057;-59
2023/05/23 11:27:36;;;;;;;9.07;2.70;;;18.70;59.10;;;;;;3970188;29;20057;-59
2023/05/23 11:30:18;;;;;;;11.45;3.35;;;18.70;58.90;;;;;;3970028;29;20058;-59
2023/05/23 11:33:00;;;;;;;10.57;3.40;;;18.70;58.20;;;;;;3959762;29;20062;-59
2023/05/23 11:35:43;;;;;;;10.30;2.90;;;18.70;58.70;;;;;;3945097;29;20058;-59
2023/05/23 11:38:25;;;;;;;13.60;4.00;;;18.70;58.50;;;;;;3970992;29;20065;-59
2023/05/23 11:41:06;;;;;;;9.10;2.47;;;18.70;58.10;;;;;;3970795;29;20106;-59
2023/05/23 11:43:50;;;;;;;9.88;2.80;;;18.80;58.40;;;;;;3959129;29;20061;-59
2023/05/23 11:46:32;;;;;;;9.68;3.20;;;18.80;57.90;;;;;;3961814;29;20125;-59
2023/05/23 11:49:13;;;;;;;;;;;18.80;57.40;;;;;;3982635;29;20057;-58
2023/05/23 11:51:55;;;;;;;11.00;3.05;;;18.80;58.00;;;;;;3984332;29;19932;-59
2023/05/23 11:54:36;;;;;;;8.80;2.92;;;18.80;57.50;;;;;;3970012;29;20082;-58
2023/05/23 11:57:17;;;;;;;9.18;3.22;;;18.80;57.50;;;;;;3969797;29;20054;-59
2023/05/23 11:59:58;;;;;;;10.13;2.75;;;18.80;57.50;;;;;;3972049;29;20066;-59
2023/05/23 12:02:40;;;;;;;8.88;3.45;;;18.80;57.70;;;;;;3985403;29;20057;-59
2023/05/23 12:05:21;;;;;;;13.93;3.17;;;18.80;57.70;;;;;;3972168;29;20367;-58
2023/05/23 12:08:03;;;;;;;7.07;2.25;;;18.80;57.60;;;;;;3969704;29;20123;-59
2023/05/23 12:10:53;;;;;;;13.40;2.95;;;18.80;57.70;;;;;;3970546;29;20419;-59
2023/05/23 12:13:34;;;;;;;10.05;3.63;;;18.80;57.50;;;;;;3970385;29;20058;-59
2023/05/23 12:16:15;;;;;;;7.68;2.60;;;18.90;57.30;;;;;;3944631;29;20062;-58
2023/05/23 12:18:57;;;;;;;19.00;3.92;;;18.90;57.60;;;;;;3956066;29;20058;-59
2023/05/23 12:21:46;;;;;;;9.15;3.00;;;18.90;57.90;;;;;;3956045;29;20055;-58
2023/05/23 12:24:28;;;;;;;10.32;3.33;;;18.90;58.10;;;;;;3958216;29;20062;-58
2023/05/23 12:27:09;;;;;;;13.00;3.17;;;18.90;57.40;;;;;;3970111;29;20058;-58
2023/05/23 12:29:51;;;;;;;12.88;2.92;;;18.90;57.10;;;;;;3969974;29;20075;-59
2023/05/23 12:32:32;;;;;;;12.60;3.22;;;18.90;56.70;;;;;;3970134;29;20108;-59
2023/05/23 12:35:15;;;;;;;8.07;2.95;;;18.90;57.90;;;;;;3969782;29;20402;-58
2023/05/23 12:37:57;;;;;;;12.77;3.28;;;18.90;57.30;;;;;;3970625;29;20073;-59
2023/05/23 12:40:40;;;;;;;5.63;2.20;;;18.90;57.40;;;;;;3959357;29;20188;-59
2023/05/23 12:43:21;;;;;;;7.03;3.03;;;18.90;56.70;;;;;;3959619;29;20130;-59
2023/05/23 12:46:02;;;;;;;9.77;3.22;;;18.80;56.50;;;;;;3964961;29;20089;-59
2023/05/23 12:48:43;;;;;;;15.80;3.35;;;18.80;56.70;;;;;;3973265;29;20618;-59
2023/05/23 12:51:25;;;;;;;;;;;18.80;58.80;;;;;;3962552;29;20556;-58
2023/05/23 12:54:08;;;;;;;9.75;2.42;;;18.80;59.50;;;;;;3972937;29;20066;-57
2023/05/23 12:56:50;;;;;;;9.88;2.13;;;18.80;58.10;;;;;;3972104;29;20057;-58
2023/05/23 12:59:31;;;;;;;9.35;2.80;;;18.80;58.40;;;;;;3972824;29;20089;-58
2023/05/23 13:02:13;;;;;;;12.60;2.95;;;18.80;58.80;;;;;;3972869;29;20058;-58
2023/05/23 13:04:54;;;;;;;;;;;18.80;58.10;;;;;;3978180;29;20808;-58
2023/05/23 13:07:36;;;;;;;11.90;3.13;;;18.80;58.20;;;;;;3971908;29;19935;-58
2023/05/23 13:10:18;;;;;;;;;;;18.80;57.80;;;;;;3973012;29;20105;-58
2023/05/23 13:13:01;;;;;;;11.50;2.85;;;18.80;58.10;;;;;;3967973;29;20019;-58
2023/05/23 13:15:42;;;;;;;5.60;2.15;;;18.80;57.50;;;;;;3983189;29;20198;-58
2023/05/23 13:18:23;;;;;;;11.02;3.00;;;18.70;57.00;;;;;;3980370;29;20496;-58
2023/05/23 13:21:05;;;;;;;;;;;18.80;56.30;;;;;;3972207;29;20057;-58
2023/05/23 13:23:46;;;;;;;12.00;3.03;;;18.80;56.00;;;;;;3972593;29;19932;-59
2023/05/23 13:26:28;;;;;;;11.48;2.63;;;18.70;56.00;;;;;;3972364;29;20459;-58
2023/05/23 13:29:10;;;;;;;7.50;2.30;;;18.70;56.20;;;;;;3972503;29;20090;-58
2023/05/23 13:31:52;;;;;;;11.27;2.97;;;18.70;56.40;;;;;;3957291;29;20584;-58
2023/05/23 13:34:36;;;;;;;9.05;2.50;;;18.80;56.50;;;;;;3945479;29;20107;-58
2023/05/23 13:37:17;;;;;;;8.77;2.40;;;18.80;56.10;;;;;;3974806;29;20061;-58
2023/05/23 13:39:58;;;;;;;;;;;18.80;56.00;;;;;;3961618;29;20058;-58
2023/05/23 13:42:40;;;;;;;9.07;2.50;;;18.80;55.90;;;;;;3972035;29;20070;-57
2023/05/23 13:45:23;;;;;;;13.50;2.60;;;18.80;55.30;;;;;;3972021;29;20054;-58
2023/05/23 13:48:05;;;;;;;14.55;3.00;;;18.70;54.40;;;;;;3972114;29;20057;-58
2023/05/23 13:50:47;;;;;;;13.45;3.42;;;18.70;54.70;;;;;;3971534;29;20066;-58
2023/05/23 13:53:29;;;;;;;8.18;1.92;;;18.70;54.90;;;;;;3971571;29;20055;-57
2023/05/23 13:56:11;;;;;;;13.88;3.75;;;18.70;55.10;;;;;;3970626;29;20147;-58
2023/05/23 13:58:52;;;;;;;9.77;2.40;;;18.70;54.60;;;;;;3971039;29;20066;-59
2023/05/23 14:01:35;;;;;;;5.80;2.35;;;18.80;55.00;;;;;;3971568;29;20069;-58
2023/05/23 14:04:16;;;;;;;10.45;3.08;;;18.80;54.30;;;;;;3960231;29;20448;-58
2023/05/23 14:06:58;;;;;;;13.43;2.67;;;18.80;54.30;;;;;;3971312;29;20131;-58